Аэропорт: Бегишево. Набережные Челны, Нижнекамск

ICAO: UWKE

METAR:
2019-09-21 16:00:00
UWKE 211600Z 30004MPS CAVOK 05/00 Q1007 R21/090070 NOSIG RMK QFE738/0984
METAR:
2019-09-21 13:45:00
TAF UWKE 211345Z 2115/2215 31003G09MPS 9999 BKN025 TEMPO 2115/2120 26005G10MPS SCT020CB TEMPO 2120/2206 25003G09MPS 3100 BR BKN011 TEMPO 2212/2215 27003G09MPS 3100 -SHRA BKN011CB